createdAt,value
2023-01-05T00:00:12.915Z,82.68
2023-01-05T00:02:39.477Z,83.05
2023-01-05T00:05:06.143Z,83.65
2023-01-05T00:07:32.524Z,83.18
2023-01-05T00:09:58.885Z,82.92
2023-01-05T00:12:44.099Z,82.56
2023-01-05T00:15:29.210Z,83.10
2023-01-05T00:18:14.222Z,82.49
2023-01-05T00:20:58.941Z,81.68
2023-01-05T00:23:25.354Z,81.66
2023-01-05T00:25:51.874Z,82.09
2023-01-05T00:28:18.250Z,82.00
2023-01-05T00:30:46.124Z,81.61
2023-01-05T00:33:15.401Z,81.34
2023-01-05T00:35:41.929Z,81.71
2023-01-05T00:38:09.062Z,81.62
2023-01-05T00:40:36.922Z,81.42
2023-01-05T00:43:03.751Z,81.26
2023-01-05T00:45:30.372Z,81.31
2023-01-05T00:47:56.915Z,81.56
2023-01-05T00:50:23.885Z,81.95
2023-01-05T00:52:50.322Z,81.71
2023-01-05T00:55:16.893Z,81.61
2023-01-05T00:57:43.494Z,81.49
2023-01-05T01:00:17.153Z,81.51
2023-01-05T01:02:43.974Z,81.18
2023-01-05T01:05:10.730Z,81.44
2023-01-05T01:07:37.105Z,81.46
2023-01-05T01:10:04.073Z,81.14
2023-01-05T01:12:30.483Z,81.20
2023-01-05T01:14:56.885Z,81.45
2023-01-05T01:17:23.321Z,81.75
2023-01-05T01:19:49.779Z,81.65
2023-01-05T01:22:16.167Z,81.68
2023-01-05T01:24:42.536Z,81.54
2023-01-05T01:27:09.267Z,81.59
2023-01-05T01:29:35.799Z,81.33
2023-01-05T01:32:02.352Z,81.45
2023-01-05T01:34:28.816Z,81.91
2023-01-05T01:36:56.429Z,81.80
2023-01-05T01:39:22.945Z,81.51
2023-01-05T01:41:49.429Z,81.08
2023-01-05T01:44:52.961Z,81.58
2023-01-05T01:47:22.404Z,81.18
2023-01-05T01:49:49.050Z,81.99
2023-01-05T01:52:15.921Z,82.00
2023-01-05T01:54:42.710Z,81.93
2023-01-05T01:57:10.946Z,81.80
2023-01-05T01:59:37.547Z,82.16
2023-01-05T02:02:04.527Z,82.77
2023-01-05T02:04:32.369Z,82.58
2023-01-05T02:06:59.444Z,83.04
2023-01-05T02:09:25.917Z,82.96
2023-01-05T02:12:22.334Z,83.43
2023-01-05T02:15:00.118Z,83.59
2023-01-05T02:17:39.097Z,83.97
2023-01-05T02:20:25.594Z,83.94
2023-01-05T02:23:01.044Z,83.96
2023-01-05T02:25:55.714Z,84.24
2023-01-05T02:28:40.897Z,84.40
2023-01-05T02:31:13.825Z,84.24
2023-01-05T02:34:03.195Z,84.45
2023-01-05T02:37:02.826Z,84.37
2023-01-05T02:39:35.150Z,84.82
2023-01-05T02:42:05.389Z,85.05
2023-01-05T02:44:33.238Z,84.90
2023-01-05T02:47:07.530Z,85.03
2023-01-05T02:49:38.699Z,85.60
2023-01-05T02:52:06.493Z,85.10
2023-01-05T02:54:44.400Z,84.86
2023-01-05T02:57:16.190Z,85.18
2023-01-05T02:59:53.324Z,85.02
2023-01-05T03:02:23.714Z,85.11
2023-01-05T03:04:56.458Z,85.45
2023-01-05T03:07:26.583Z,85.60
2023-01-05T03:09:53.304Z,85.41
2023-01-05T03:12:46.060Z,85.48
2023-01-05T03:15:18.606Z,84.83
2023-01-05T03:17:54.873Z,85.18
2023-01-05T03:20:24.091Z,85.47
2023-01-05T03:23:10.725Z,85.09
2023-01-05T03:25:59.379Z,84.88
2023-01-05T03:28:59.007Z,84.88
2023-01-05T03:31:54.830Z,84.93
2023-01-05T03:34:47.408Z,85.01
2023-01-05T03:37:17.584Z,85.26
2023-01-05T03:39:46.757Z,84.89
2023-01-05T03:42:14.287Z,84.76
2023-01-05T03:44:44.314Z,85.06
2023-01-05T03:47:10.684Z,85.36
2023-01-05T03:49:37.709Z,84.87
2023-01-05T03:52:04.440Z,85.40
2023-01-05T03:54:30.834Z,85.13
2023-01-05T03:56:57.268Z,85.45
2023-01-05T03:59:23.698Z,85.45
2023-01-05T04:01:50.242Z,85.48
2023-01-05T04:04:16.697Z,85.66
2023-01-05T04:06:43.119Z,85.82
2023-01-05T04:09:09.537Z,85.47
2023-01-05T04:11:35.924Z,85.24
2023-01-05T04:14:02.304Z,85.54
2023-01-05T04:16:28.914Z,85.67
2023-01-05T04:18:55.451Z,85.40
2023-01-05T04:21:21.878Z,85.84
2023-01-05T04:23:48.256Z,85.91
2023-01-05T04:26:14.650Z,85.15
2023-01-05T04:28:41.066Z,85.59
2023-01-05T04:31:07.476Z,85.62
2023-01-05T04:33:33.892Z,85.46
2023-01-05T04:36:00.311Z,85.97
2023-01-05T04:38:26.720Z,85.39
2023-01-05T04:40:53.203Z,85.60
2023-01-05T04:43:19.957Z,85.59
2023-01-05T04:45:48.202Z,85.47
2023-01-05T04:48:15.155Z,85.74
2023-01-05T04:50:41.604Z,85.81
2023-01-05T04:53:08.106Z,85.64
2023-01-05T04:55:34.485Z,85.92
2023-01-05T04:58:00.861Z,85.41
2023-01-05T05:00:27.305Z,85.64
2023-01-05T05:02:53.747Z,85.77
2023-01-05T05:05:20.186Z,86.03
2023-01-05T05:07:46.551Z,85.74
2023-01-05T05:10:13.068Z,86.07
2023-01-05T05:12:39.504Z,86.07
2023-01-05T05:15:06.423Z,86.35
2023-01-05T05:17:33.106Z,86.28
2023-01-05T05:19:59.504Z,86.54
2023-01-05T05:22:26.323Z,86.45
2023-01-05T05:24:52.692Z,86.26
2023-01-05T05:27:19.139Z,86.07
2023-01-05T05:29:45.565Z,86.25
2023-01-05T05:32:11.943Z,86.95
2023-01-05T05:34:38.322Z,86.46
2023-01-05T05:37:04.834Z,86.11
2023-01-05T05:39:31.224Z,86.60
2023-01-05T05:41:57.599Z,86.51
2023-01-05T05:44:23.996Z,86.78
2023-01-05T05:46:50.478Z,86.71
2023-01-05T05:49:17.003Z,87.17
2023-01-05T05:51:43.403Z,87.13
2023-01-05T05:54:09.898Z,87.16
2023-01-05T05:56:36.316Z,87.08
2023-01-05T05:59:02.704Z,87.14
2023-01-05T06:01:29.510Z,87.16
2023-01-05T06:03:56.017Z,87.06
2023-01-05T06:06:22.565Z,87.33
2023-01-05T06:08:49.060Z,87.16
2023-01-05T06:11:15.437Z,87.21
2023-01-05T06:13:42.213Z,87.66
2023-01-05T06:16:08.681Z,87.27
2023-01-05T06:18:35.245Z,87.48
2023-01-05T06:21:02.191Z,87.42
2023-01-05T06:23:28.780Z,87.45
2023-01-05T06:25:55.176Z,86.79
2023-01-05T06:28:21.561Z,87.17
2023-01-05T06:30:48.408Z,87.02
2023-01-05T06:33:14.868Z,87.33
2023-01-05T06:35:41.283Z,87.08
2023-01-05T06:38:07.693Z,87.20
2023-01-05T06:40:34.054Z,86.85
2023-01-05T06:43:00.438Z,87.03
2023-01-05T06:45:26.873Z,86.90
2023-01-05T06:47:53.851Z,86.91
2023-01-05T06:50:20.300Z,87.22
2023-01-05T06:52:46.750Z,86.85
2023-01-05T06:55:13.155Z,86.78
2023-01-05T06:57:39.561Z,86.71
2023-01-05T07:00:09.328Z,86.62
2023-01-05T07:02:35.871Z,86.93
2023-01-05T07:05:02.421Z,86.56
2023-01-05T07:07:28.909Z,86.57
2023-01-05T07:09:55.357Z,86.95
2023-01-05T07:12:21.831Z,86.68
2023-01-05T07:14:52.900Z,86.92
2023-01-05T07:17:22.195Z,87.44
2023-01-05T07:19:48.635Z,87.24
2023-01-05T07:22:15.282Z,87.17
2023-01-05T07:24:41.743Z,87.28
2023-01-05T07:27:09.926Z,87.30
2023-01-05T07:29:36.658Z,87.29
2023-01-05T07:32:03.257Z,87.32
2023-01-05T07:34:29.668Z,87.00
2023-01-05T07:36:56.123Z,87.51
2023-01-05T07:39:22.555Z,87.59
2023-01-05T07:41:48.977Z,87.33
2023-01-05T07:44:15.401Z,87.26
2023-01-05T07:46:41.849Z,87.59
2023-01-05T07:49:08.343Z,87.54
2023-01-05T07:51:35.571Z,87.37
2023-01-05T07:54:02.011Z,87.67
2023-01-05T07:56:28.420Z,87.45
2023-01-05T07:58:54.891Z,87.10
2023-01-05T08:01:21.700Z,87.04
2023-01-05T08:03:48.427Z,87.10
2023-01-05T08:06:18.249Z,87.03
2023-01-05T08:08:45.320Z,86.94
2023-01-05T08:11:16.597Z,87.17
2023-01-05T08:14:02.385Z,86.89
2023-01-05T08:16:31.034Z,86.79
2023-01-05T08:18:57.922Z,86.48
2023-01-05T08:21:25.468Z,86.60
2023-01-05T08:23:53.178Z,86.39
2023-01-05T08:26:22.588Z,86.94
2023-01-05T08:28:49.581Z,86.36
2023-01-05T08:31:21.698Z,86.49
2023-01-05T08:33:48.542Z,86.29
2023-01-05T08:36:18.839Z,86.45
2023-01-05T08:38:49.195Z,86.35
2023-01-05T08:41:28.022Z,86.08
2023-01-05T08:43:56.754Z,86.39
2023-01-05T08:46:25.254Z,86.08
2023-01-05T08:48:53.602Z,86.21
2023-01-05T08:51:20.287Z,86.33
2023-01-05T08:53:46.758Z,86.04
2023-01-05T08:56:13.307Z,85.84
2023-01-05T08:58:40.520Z,85.99
2023-01-05T09:01:11.468Z,86.11
2023-01-05T09:03:38.218Z,86.21
2023-01-05T09:06:06.114Z,86.16
2023-01-05T09:08:33.476Z,86.19
2023-01-05T09:11:15.426Z,85.87
2023-01-05T09:13:45.917Z,85.88
2023-01-05T09:16:13.907Z,85.87
2023-01-05T09:18:42.210Z,86.08
2023-01-05T09:21:09.795Z,86.36
2023-01-05T09:23:37.274Z,86.14
2023-01-05T09:26:05.164Z,86.22
2023-01-05T09:28:31.943Z,86.55
2023-01-05T09:30:58.652Z,86.44
2023-01-05T09:33:25.796Z,86.11
2023-01-05T09:35:56.193Z,85.82
2023-01-05T09:38:23.571Z,85.95
2023-01-05T09:40:51.470Z,86.02
2023-01-05T09:43:23.667Z,85.93
2023-01-05T09:45:50.754Z,85.49
2023-01-05T09:48:18.567Z,85.66
2023-01-05T09:50:47.428Z,86.05
2023-01-05T09:53:14.885Z,85.91
2023-01-05T09:55:42.548Z,85.58
2023-01-05T09:58:15.320Z,85.59
2023-01-05T10:00:45.546Z,85.10
2023-01-05T10:03:44.672Z,84.96
2023-01-05T10:06:06.921Z,85.29
2023-01-05T10:08:40.270Z,85.16
2023-01-05T10:11:30.881Z,85.10
2023-01-05T10:14:05.426Z,84.73
2023-01-05T10:16:32.173Z,84.67
2023-01-05T10:18:59.134Z,84.48
2023-01-05T10:21:55.106Z,84.26
2023-01-05T10:24:54.804Z,84.65
2023-01-05T10:27:38.288Z,84.34
2023-01-05T10:30:22.409Z,84.34
2023-01-05T10:36:01.245Z,84.71
2023-01-05T10:38:39.935Z,84.26
2023-01-05T10:41:12.270Z,83.87
2023-01-05T10:44:09.535Z,83.55
2023-01-05T10:46:44.664Z,83.70
2023-01-05T10:49:20.443Z,83.40
2023-01-05T10:51:52.825Z,83.59
2023-01-05T10:54:35.128Z,83.27
2023-01-05T10:57:35.495Z,83.41
2023-01-05T11:00:13.634Z,83.14
2023-01-05T11:02:49.651Z,83.01
2023-01-05T11:05:27.448Z,82.73
2023-01-05T11:07:59.679Z,82.96
2023-01-05T11:10:57.189Z,82.49
2023-01-05T11:13:33.441Z,82.30
2023-01-05T11:16:01.947Z,82.13
2023-01-05T11:18:36.011Z,82.06
2023-01-05T11:21:09.130Z,81.86
2023-01-05T11:23:41.750Z,81.78
2023-01-05T11:26:32.596Z,81.27
2023-01-05T11:29:03.508Z,81.55
2023-01-05T11:31:37.920Z,81.02
2023-01-05T11:34:09.590Z,80.95
2023-01-05T11:36:36.219Z,80.99
2023-01-05T11:39:03.772Z,81.11
2023-01-05T11:41:30.162Z,81.49
2023-01-05T11:44:00.311Z,80.68
2023-01-05T11:46:40.396Z,80.40
2023-01-05T11:49:08.259Z,80.79
2023-01-05T11:51:40.055Z,80.43
2023-01-05T11:54:26.364Z,79.49
2023-01-05T11:57:14.565Z,79.31
2023-01-05T11:59:41.370Z,79.85
2023-01-05T12:02:26.642Z,79.37
2023-01-05T12:05:22.187Z,79.13
2023-01-05T12:07:53.605Z,79.21
2023-01-05T12:10:47.733Z,79.00
2023-01-05T12:13:38.429Z,78.77
2023-01-05T12:16:13.925Z,78.35
2023-01-05T12:19:01.571Z,78.46
2023-01-05T12:21:45.934Z,79.02
2023-01-05T12:24:42.302Z,78.76
2023-01-05T12:27:24.412Z,78.79
2023-01-05T12:34:00.257Z,77.69
2023-01-05T12:35:52.572Z,77.26
2023-01-05T12:38:56.815Z,76.93
2023-01-05T12:41:26.153Z,76.96
2023-01-05T12:44:19.863Z,76.65
2023-01-05T12:46:55.439Z,77.12
2023-01-05T12:49:25.944Z,77.18
2023-01-05T12:52:06.386Z,77.04
2023-01-05T12:54:54.083Z,76.92
2023-01-05T12:57:27.496Z,76.62
2023-01-05T13:00:06.070Z,76.46
2023-01-05T13:02:37.520Z,76.26
2023-01-05T13:05:10.166Z,77.03
2023-01-05T13:07:48.509Z,76.46
2023-01-05T13:10:25.484Z,76.88
2023-01-05T13:13:09.368Z,77.36
2023-01-05T13:15:42.012Z,77.48
2023-01-05T13:18:14.852Z,77.50
2023-01-05T13:20:50.342Z,77.20
2023-01-05T13:23:19.869Z,77.43
2023-01-05T13:25:54.674Z,77.29
2023-01-05T13:28:23.285Z,77.98
2023-01-05T13:31:04.457Z,77.73
2023-01-05T13:33:55.607Z,77.77
2023-01-05T13:36:48.020Z,77.92
2023-01-05T13:39:33.899Z,78.53
2023-01-05T13:42:51.754Z,79.01
2023-01-05T13:45:44.713Z,78.95
2023-01-05T13:51:08.687Z,79.16
2023-01-05T13:53:37.891Z,79.37
2023-01-05T13:56:26.243Z,79.13
2023-01-05T13:58:58.684Z,79.28
2023-01-05T14:01:41.602Z,79.00
2023-01-05T14:04:21.792Z,79.54
2023-01-05T14:06:50.865Z,79.86
2023-01-05T14:09:21.532Z,79.24
2023-01-05T14:12:20.559Z,79.73
2023-01-05T14:15:24.421Z,79.74
2023-01-05T14:18:04.490Z,80.04
2023-01-05T14:20:49.385Z,80.25
2023-01-05T14:23:29.682Z,79.86
2023-01-05T14:26:06.643Z,80.03
2023-01-05T14:28:35.744Z,80.06
2023-01-05T14:31:08.372Z,80.10
2023-01-05T14:33:46.575Z,80.48
2023-01-05T14:36:47.579Z,80.00
2023-01-05T14:39:20.176Z,80.35
2023-01-05T14:42:00.423Z,80.48
2023-01-05T14:44:33.708Z,80.86
2023-01-05T14:47:00.663Z,80.69
2023-01-05T14:49:32.224Z,80.95
2023-01-05T14:52:00.496Z,81.29
2023-01-05T14:55:21.693Z,81.61
2023-01-05T14:57:56.768Z,82.31
2023-01-05T15:00:39.950Z,82.62
2023-01-05T15:05:56.410Z,83.72
2023-01-05T15:08:34.158Z,83.88
2023-01-05T15:11:09.923Z,84.19
2023-01-05T15:14:13.386Z,84.33
2023-01-05T15:16:55.154Z,85.20
2023-01-05T15:20:00.712Z,86.15
2023-01-05T15:22:52.604Z,86.92
2023-01-05T15:25:40.868Z,87.03
2023-01-05T15:28:18.308Z,86.90
2023-01-05T15:31:06.483Z,87.63
2023-01-05T15:33:41.711Z,87.58
2023-01-05T15:36:18.441Z,87.39
2023-01-05T15:38:46.311Z,87.00
2023-01-05T15:41:14.029Z,87.65
2023-01-05T15:43:41.557Z,87.40
2023-01-05T15:46:08.651Z,87.12
2023-01-05T15:48:43.546Z,87.41
2023-01-05T15:51:12.450Z,87.30
2023-01-05T15:53:41.142Z,87.15
2023-01-05T15:56:34.275Z,87.57
2023-01-05T15:59:02.333Z,87.20
2023-01-05T16:01:29.437Z,87.19
2023-01-05T16:04:09.947Z,86.95
2023-01-05T16:06:39.420Z,87.18
2023-01-05T16:09:23.282Z,87.17
2023-01-05T16:11:51.429Z,87.12
2023-01-05T16:14:25.713Z,87.30
2023-01-05T16:16:54.764Z,87.89
2023-01-05T16:19:34.914Z,88.14
2023-01-05T16:22:08.139Z,88.93
2023-01-05T16:24:41.915Z,89.22
2023-01-05T16:27:11.247Z,90.19
2023-01-05T16:29:47.024Z,90.52
2023-01-05T16:32:28.725Z,91.18
2023-01-05T16:35:29.267Z,91.54
2023-01-05T16:38:12.933Z,91.53
2023-01-05T16:40:45.537Z,92.14
2023-01-05T16:43:34.937Z,92.93
2023-01-05T16:46:29.036Z,92.60
2023-01-05T16:49:26.444Z,93.25
2023-01-05T16:51:54.110Z,92.83
2023-01-05T16:54:36.199Z,92.85
2023-01-05T16:57:28.903Z,93.31
2023-01-05T16:59:56.129Z,93.41
2023-01-05T17:02:45.674Z,93.12
2023-01-05T17:05:20.767Z,93.38
2023-01-05T17:07:49.792Z,93.29
2023-01-05T17:10:26.021Z,93.36
2023-01-05T17:12:56.537Z,93.44
2023-01-05T17:15:24.914Z,93.72
2023-01-05T17:17:55.184Z,93.75
2023-01-05T17:20:23.005Z,93.87
2023-01-05T17:22:50.505Z,94.00
2023-01-05T17:25:17.070Z,93.59
2023-01-05T17:27:44.077Z,94.18
2023-01-05T17:30:19.206Z,94.37
2023-01-05T17:32:45.943Z,94.63
2023-01-05T17:35:12.698Z,94.55
2023-01-05T17:37:39.859Z,94.73
2023-01-05T17:40:07.435Z,94.73
2023-01-05T17:42:42.750Z,94.51
2023-01-05T17:45:17.238Z,94.31
2023-01-05T17:47:44.112Z,94.59
2023-01-05T17:50:16.665Z,94.44
2023-01-05T17:52:43.158Z,94.75
2023-01-05T17:55:10.403Z,95.04
2023-01-05T17:57:37.126Z,94.85
2023-01-05T18:00:06.048Z,95.13
2023-01-05T18:02:32.724Z,95.27
2023-01-05T18:04:59.334Z,95.40
2023-01-05T18:07:25.857Z,95.57
2023-01-05T18:09:52.584Z,95.17
2023-01-05T18:12:18.977Z,95.80
2023-01-05T18:14:45.496Z,95.45
2023-01-05T18:17:11.986Z,95.66
2023-01-05T18:19:38.378Z,95.23
2023-01-05T18:22:05.722Z,95.96
2023-01-05T18:24:32.193Z,95.94
2023-01-05T18:26:58.660Z,96.41
2023-01-05T18:29:25.324Z,96.11
2023-01-05T18:31:53.566Z,96.14
2023-01-05T18:34:20.101Z,96.78
2023-01-05T18:36:48.442Z,96.30
2023-01-05T18:39:16.884Z,96.82
2023-01-05T18:41:43.260Z,97.04
2023-01-05T18:44:09.783Z,97.03
2023-01-05T18:46:36.280Z,97.08
2023-01-05T18:49:02.663Z,97.19
2023-01-05T18:51:29.070Z,96.77
2023-01-05T18:53:55.443Z,96.96
2023-01-05T18:56:21.838Z,97.22
2023-01-05T18:58:48.252Z,97.24
2023-01-05T19:01:17.583Z,97.21
2023-01-05T19:03:44.186Z,97.49
2023-01-05T19:06:15.832Z,97.33
2023-01-05T19:08:44.608Z,97.48
2023-01-05T19:11:27.806Z,97.46
2023-01-05T19:13:55.829Z,97.68
2023-01-05T19:16:25.299Z,97.35
2023-01-05T19:18:54.642Z,97.33
2023-01-05T19:21:22.218Z,97.38
2023-01-05T19:23:49.801Z,97.52
2023-01-05T19:26:16.233Z,97.37
2023-01-05T19:28:45.188Z,97.46
2023-01-05T19:31:13.800Z,97.39
2023-01-05T19:33:41.304Z,97.56
2023-01-05T19:36:10.834Z,97.71
2023-01-05T19:38:37.974Z,98.01
2023-01-05T19:41:12.601Z,97.91
2023-01-05T19:43:41.835Z,98.00
2023-01-05T19:46:13.421Z,97.81
2023-01-05T19:48:41.953Z,97.72
2023-01-05T19:51:11.003Z,97.55
2023-01-05T19:53:38.571Z,97.67
2023-01-05T19:56:13.071Z,98.20
2023-01-05T19:58:40.701Z,98.33
2023-01-05T20:01:08.566Z,98.13
2023-01-05T20:03:35.067Z,97.97
2023-01-05T20:06:09.626Z,97.93
2023-01-05T20:08:36.561Z,98.02
2023-01-05T20:11:12.579Z,97.74
2023-01-05T20:13:39.693Z,97.77
2023-01-05T20:16:08.595Z,97.77
2023-01-05T20:18:35.364Z,97.74
2023-01-05T20:21:03.440Z,97.65
2023-01-05T20:23:36.335Z,97.38
2023-01-05T20:26:12.241Z,97.59
2023-01-05T20:28:39.317Z,97.23
2023-01-05T20:31:13.888Z,97.38
2023-01-05T20:33:40.283Z,97.40
2023-01-05T20:36:07.125Z,97.48
2023-01-05T20:38:33.695Z,97.42
2023-01-05T20:41:00.106Z,97.48
2023-01-05T20:43:26.610Z,97.37
2023-01-05T20:45:53.001Z,97.00
2023-01-05T20:48:19.438Z,97.20
2023-01-05T20:50:46.253Z,97.17
2023-01-05T20:53:12.678Z,97.20
2023-01-05T20:55:40.054Z,96.99
2023-01-05T20:58:06.789Z,96.75
2023-01-05T21:00:33.259Z,96.72
2023-01-05T21:02:59.716Z,96.34
2023-01-05T21:05:26.168Z,96.45
2023-01-05T21:07:52.700Z,96.59
2023-01-05T21:10:19.740Z,96.43
2023-01-05T21:12:46.331Z,96.30
2023-01-05T21:15:12.711Z,96.02
2023-01-05T21:17:39.837Z,96.35
2023-01-05T21:20:07.923Z,96.42
2023-01-05T21:22:34.999Z,96.13
2023-01-05T21:25:01.494Z,96.49
2023-01-05T21:27:27.987Z,96.71
2023-01-05T21:29:54.463Z,96.48
2023-01-05T21:32:20.862Z,96.74
2023-01-05T21:34:47.340Z,96.05
2023-01-05T21:37:13.758Z,96.30
2023-01-05T21:39:40.201Z,96.33
2023-01-05T21:42:25.251Z,95.97
2023-01-05T21:44:51.806Z,96.13
2023-01-05T21:47:18.242Z,96.09
2023-01-05T21:49:45.436Z,95.97
2023-01-05T21:52:30.604Z,96.08
2023-01-05T21:55:15.727Z,96.36
2023-01-05T21:57:42.267Z,96.48
2023-01-05T22:00:09.087Z,96.91
2023-01-05T22:02:35.464Z,96.09
2023-01-05T22:05:02.031Z,96.07
2023-01-05T22:07:28.693Z,96.11
2023-01-05T22:09:55.094Z,96.16
2023-01-05T22:12:21.592Z,95.26
2023-01-05T22:14:47.969Z,95.80
2023-01-05T22:17:14.518Z,95.68
2023-01-05T22:19:40.950Z,95.23
2023-01-05T22:22:07.355Z,95.04
2023-01-05T22:24:33.892Z,95.17
2023-01-05T22:27:00.269Z,95.31
2023-01-05T22:29:26.713Z,95.73
2023-01-05T22:31:53.275Z,95.66
2023-01-05T22:34:19.869Z,95.02
2023-01-05T22:36:46.299Z,95.15
2023-01-05T22:39:12.896Z,95.30
2023-01-05T22:41:39.437Z,95.30
2023-01-05T22:44:06.062Z,95.37
2023-01-05T22:46:33.165Z,95.24
2023-01-05T22:48:59.867Z,95.13
2023-01-05T22:51:36.660Z,94.82
2023-01-05T22:54:04.020Z,95.36
2023-01-05T22:56:31.933Z,94.68
2023-01-05T22:58:58.924Z,94.88
2023-01-05T23:01:34.061Z,94.52
2023-01-05T23:04:01.477Z,95.06
2023-01-05T23:06:28.495Z,95.25
2023-01-05T23:08:55.575Z,95.20
2023-01-05T23:11:28.254Z,95.45
2023-01-05T23:13:55.737Z,95.27
2023-01-05T23:16:22.567Z,95.75
2023-01-05T23:18:50.120Z,95.86
2023-01-05T23:21:18.512Z,95.58
2023-01-05T23:23:45.307Z,96.07
2023-01-05T23:26:13.378Z,95.30
2023-01-05T23:28:40.350Z,95.56
2023-01-05T23:31:06.960Z,95.58
2023-01-05T23:33:35.400Z,95.52
2023-01-05T23:36:01.890Z,95.22
2023-01-05T23:38:28.547Z,95.26
2023-01-05T23:40:56.250Z,95.20
2023-01-05T23:43:25.232Z,95.04
2023-01-05T23:45:52.807Z,94.46
2023-01-05T23:48:19.235Z,94.33
2023-01-05T23:50:47.684Z,94.11
2023-01-05T23:53:14.847Z,94.15
2023-01-05T23:55:41.261Z,94.05
2023-01-05T23:58:08.508Z,93.92
